createdAt,value
2018-09-18T00:00:11.289Z,18.10
2018-09-18T00:02:39.557Z,18.20
2018-09-18T00:05:07.590Z,18.20
2018-09-18T00:10:04.482Z,18.20
2018-09-18T00:12:32.779Z,18.10
2018-09-18T00:19:56.957Z,18.00
2018-09-18T00:22:25.135Z,18.00
2018-09-18T00:24:53.435Z,17.90
2018-09-18T00:27:21.471Z,17.90
2018-09-18T00:29:49.602Z,17.90
2018-09-18T00:32:17.907Z,17.80
2018-09-18T00:34:46.004Z,17.80
2018-09-18T00:37:14.032Z,17.70
2018-09-18T00:39:42.259Z,17.80
2018-09-18T00:42:10.510Z,17.80
2018-09-18T00:44:38.624Z,17.70
2018-09-18T00:47:06.658Z,17.80
2018-09-18T00:49:34.708Z,17.70
2018-09-18T00:52:02.859Z,17.80
2018-09-18T00:56:58.974Z,17.80
2018-09-18T00:59:26.995Z,17.70
2018-09-18T01:04:23.195Z,17.80
2018-09-18T01:06:51.305Z,17.90
2018-09-18T01:09:19.643Z,17.80
2018-09-18T01:11:47.675Z,17.70
2018-09-18T01:16:43.801Z,17.60
2018-09-18T01:19:11.937Z,17.50
2018-09-18T01:21:40.051Z,17.50
2018-09-18T01:24:08.409Z,17.50
2018-09-18T01:29:04.485Z,17.40
2018-09-18T01:31:32.561Z,17.50
2018-09-18T01:34:00.654Z,17.50
2018-09-18T01:36:28.735Z,17.50
2018-09-18T01:38:56.787Z,17.30
2018-09-18T01:41:24.885Z,17.40
2018-09-18T01:43:52.901Z,17.40
2018-09-18T01:46:21.039Z,17.40
2018-09-18T01:48:49.385Z,17.50
2018-09-18T01:51:17.392Z,17.40
2018-09-18T01:53:45.537Z,17.50
2018-09-18T01:56:13.618Z,17.40
2018-09-18T02:01:09.755Z,17.30
2018-09-18T02:03:38.101Z,17.30
2018-09-18T02:13:30.722Z,17.20
2018-09-18T02:18:28.121Z,17.00
2018-09-18T02:23:24.493Z,17.00
2018-09-18T02:25:53.773Z,17.00
2018-09-18T02:28:21.889Z,17.00
2018-09-18T02:30:49.924Z,16.90
2018-09-18T02:33:18.026Z,16.80
2018-09-18T02:35:46.090Z,16.90
2018-09-18T02:38:14.164Z,16.80
2018-09-18T02:40:42.243Z,16.90
2018-09-18T02:45:38.457Z,17.00
2018-09-18T02:48:07.253Z,17.00
2018-09-18T02:50:35.458Z,16.90
2018-09-18T02:53:03.529Z,16.90
2018-09-18T02:55:31.617Z,17.00
2018-09-18T02:57:59.619Z,17.00
2018-09-18T03:00:27.742Z,17.00
2018-09-18T03:02:55.819Z,17.10
2018-09-18T03:05:23.899Z,17.10
2018-09-18T03:07:51.935Z,17.10
2018-09-18T03:10:20.015Z,17.00
2018-09-18T03:12:49.294Z,17.20
2018-09-18T03:15:17.390Z,17.20
2018-09-18T03:17:45.468Z,17.20
2018-09-18T03:20:13.499Z,17.20
2018-09-18T03:22:42.093Z,17.10
2018-09-18T03:30:06.846Z,16.80
2018-09-18T03:37:30.602Z,16.80
2018-09-18T03:39:58.795Z,16.90
2018-09-18T03:42:27.074Z,17.00
2018-09-18T03:44:55.164Z,17.00
2018-09-18T03:47:23.207Z,17.00
2018-09-18T03:49:53.159Z,16.90
2018-09-18T03:52:21.203Z,16.80
2018-09-18T03:54:49.316Z,16.80
2018-09-18T03:57:17.364Z,16.90
2018-09-18T03:59:45.405Z,17.00
2018-09-18T04:02:14.470Z,17.00
2018-09-18T04:07:10.629Z,17.00
2018-09-18T04:09:39.005Z,17.00
2018-09-18T04:12:07.318Z,17.00
2018-09-18T04:14:35.439Z,17.00
2018-09-18T04:19:31.556Z,17.10
2018-09-18T04:21:59.610Z,17.10
2018-09-18T04:24:27.667Z,17.20
2018-09-18T04:29:23.872Z,17.20
2018-09-18T04:34:19.983Z,17.10
2018-09-18T04:36:48.161Z,17.00
2018-09-18T04:41:44.171Z,17.20
2018-09-18T04:44:13.466Z,17.20
2018-09-18T04:46:41.557Z,17.40
2018-09-18T04:49:09.676Z,17.40
2018-09-18T04:54:05.853Z,17.40
2018-09-18T04:59:01.945Z,17.20
2018-09-18T05:01:29.951Z,17.20
2018-09-18T05:03:59.347Z,17.20
2018-09-18T05:06:27.623Z,17.20
2018-09-18T05:08:56.173Z,17.20
2018-09-18T05:11:24.620Z,17.20
2018-09-18T05:16:20.870Z,17.40
2018-09-18T05:18:48.906Z,17.70
2018-09-18T05:23:45.998Z,18.00
2018-09-18T05:26:14.096Z,18.00
2018-09-18T05:31:10.295Z,18.20
2018-09-18T05:33:38.650Z,18.20
2018-09-18T05:36:07.877Z,18.30
2018-09-18T05:41:04.333Z,18.50
2018-09-18T05:43:32.410Z,18.60
2018-09-18T05:48:33.687Z,18.80
2018-09-18T05:51:01.979Z,18.90
2018-09-18T05:53:30.002Z,18.90
2018-09-18T05:55:58.290Z,19.00
2018-09-18T06:00:54.827Z,19.50
2018-09-18T06:03:23.167Z,19.80
2018-09-18T06:08:22.690Z,20.30
2018-09-18T06:13:18.820Z,21.10
2018-09-18T06:20:43.610Z,21.60
2018-09-18T06:23:11.760Z,21.70
2018-09-18T06:25:40.086Z,21.70
2018-09-18T06:28:08.197Z,21.80
2018-09-18T06:33:04.371Z,22.20
2018-09-18T06:35:32.717Z,22.30
2018-09-18T06:38:01.958Z,22.50
2018-09-18T06:42:58.066Z,23.00
2018-09-18T06:45:26.242Z,23.40
2018-09-18T06:47:55.323Z,23.70
2018-09-18T06:50:23.571Z,23.90
2018-09-18T07:02:46.021Z,24.10
2018-09-18T07:07:42.229Z,24.50
2018-09-18T07:10:10.278Z,24.70
2018-09-18T07:15:06.542Z,25.10
2018-09-18T07:17:34.803Z,25.10
2018-09-18T07:20:03.003Z,25.20
2018-09-18T07:22:31.202Z,24.90
2018-09-18T07:24:59.389Z,24.80
2018-09-18T07:27:27.367Z,25.30
2018-09-18T07:29:55.420Z,25.70
2018-09-18T07:32:23.505Z,25.80
2018-09-18T07:37:19.668Z,26.40
2018-09-18T07:39:47.686Z,26.60
2018-09-18T07:42:15.851Z,26.70
2018-09-18T07:44:44.241Z,27.40
2018-09-18T07:47:12.289Z,27.90
2018-09-18T07:49:40.292Z,28.40
2018-09-18T07:52:08.471Z,29.00
2018-09-18T07:54:36.744Z,29.70
2018-09-18T07:59:37.199Z,29.80
2018-09-18T08:07:01.919Z,29.80
2018-09-18T08:09:30.084Z,30.20
2018-09-18T08:11:58.171Z,30.20
2018-09-18T08:14:26.217Z,30.40
2018-09-18T08:16:54.310Z,30.10
2018-09-18T08:19:22.455Z,30.00
2018-09-18T08:21:50.661Z,30.40
2018-09-18T08:24:18.872Z,30.90
2018-09-18T08:26:46.855Z,31.60
2018-09-18T08:29:17.148Z,32.20
2018-09-18T08:34:13.283Z,32.80
2018-09-18T08:41:39.302Z,32.80
2018-09-18T08:44:07.338Z,32.90
2018-09-18T08:51:31.630Z,33.80
2018-09-18T08:53:59.729Z,33.80
2018-09-18T08:56:27.766Z,34.00
2018-09-18T09:03:51.963Z,33.40
2018-09-18T09:06:20.171Z,34.40
2018-09-18T09:08:49.054Z,35.00
2018-09-18T09:11:17.090Z,35.50
2018-09-18T09:13:45.297Z,35.80
2018-09-18T09:18:41.389Z,36.40
2018-09-18T09:23:37.433Z,36.10
2018-09-18T09:26:05.844Z,35.80
2018-09-18T09:31:01.976Z,35.20
2018-09-18T09:33:30.109Z,35.80
2018-09-18T09:35:58.144Z,35.80
2018-09-18T09:38:26.203Z,36.20
2018-09-18T09:40:56.755Z,36.40
2018-09-18T09:43:24.767Z,36.10
2018-09-18T09:48:21.081Z,36.50
2018-09-18T09:50:49.319Z,36.70
2018-09-18T09:53:17.409Z,36.70
2018-09-18T09:55:45.496Z,36.40
2018-09-18T09:58:13.574Z,35.50
2018-09-18T10:00:47.230Z,35.20
2018-09-18T10:03:15.604Z,35.90
2018-09-18T10:08:12.174Z,36.60
2018-09-18T10:13:08.491Z,35.70
2018-09-18T10:15:36.880Z,35.10
2018-09-18T10:20:32.986Z,35.10
2018-09-18T10:23:01.065Z,34.60
2018-09-18T10:27:57.197Z,35.20
2018-09-18T10:35:21.386Z,35.80
2018-09-18T10:37:49.503Z,36.20
2018-09-18T10:45:14.022Z,35.00
2018-09-18T10:50:10.077Z,34.60
2018-09-18T10:52:38.205Z,34.80
2018-09-18T10:55:06.238Z,35.20
2018-09-18T11:00:02.450Z,34.10
2018-09-18T11:02:30.749Z,33.80
2018-09-18T11:04:58.835Z,33.20
2018-09-18T11:09:55.056Z,32.30
2018-09-18T11:14:51.500Z,32.40
2018-09-18T11:17:19.802Z,32.90
2018-09-18T11:19:47.857Z,33.40
2018-09-18T11:22:16.402Z,33.50
2018-09-18T11:27:12.379Z,34.10
2018-09-18T11:29:40.946Z,34.10
2018-09-18T11:34:38.147Z,35.30
2018-09-18T11:37:06.369Z,35.30
2018-09-18T11:39:34.596Z,35.40
2018-09-18T11:42:02.625Z,34.70
2018-09-18T11:44:31.031Z,34.20
2018-09-18T11:46:59.111Z,34.30
2018-09-18T11:49:27.223Z,34.70
2018-09-18T11:51:55.252Z,34.20
2018-09-18T11:54:23.404Z,34.10
2018-09-18T11:59:19.454Z,34.10
2018-09-18T12:06:43.218Z,32.40
2018-09-18T12:09:11.840Z,32.30
2018-09-18T12:11:40.797Z,32.20
2018-09-18T12:16:36.887Z,32.50
2018-09-18T12:19:05.126Z,32.90
2018-09-18T12:21:33.297Z,33.20
2018-09-18T12:24:01.426Z,33.40
2018-09-18T12:26:30.738Z,33.40
2018-09-18T12:29:00.050Z,33.50
2018-09-18T12:31:28.043Z,33.40
2018-09-18T12:33:56.155Z,33.30
2018-09-18T12:36:24.211Z,33.50
2018-09-18T12:38:52.299Z,33.20
2018-09-18T12:41:20.397Z,32.80
2018-09-18T12:43:48.482Z,32.70
2018-09-18T12:46:16.494Z,32.70
2018-09-18T12:48:44.569Z,32.50
2018-09-18T12:51:12.712Z,32.10
2018-09-18T12:53:41.065Z,32.00
2018-09-18T12:56:09.467Z,31.70
2018-09-18T12:58:37.832Z,31.60
2018-09-18T13:01:05.849Z,31.40
2018-09-18T13:03:33.905Z,31.40
2018-09-18T13:08:30.118Z,31.70
2018-09-18T13:10:58.149Z,31.90
2018-09-18T13:13:26.253Z,31.90
2018-09-18T13:15:54.315Z,31.50
2018-09-18T13:20:50.452Z,31.50
2018-09-18T13:23:18.500Z,31.70
2018-09-18T13:28:14.664Z,31.70
2018-09-18T13:30:42.641Z,31.50
2018-09-18T13:33:10.798Z,31.30
2018-09-18T13:35:38.981Z,31.40
2018-09-18T13:38:07.489Z,31.10
2018-09-18T13:40:35.468Z,31.20
2018-09-18T13:45:31.415Z,30.90
2018-09-18T13:47:59.529Z,30.90
2018-09-18T13:50:27.706Z,31.20
2018-09-18T13:52:55.965Z,31.40
2018-09-18T13:55:24.091Z,31.40
2018-09-18T13:57:52.497Z,31.60
2018-09-18T14:00:20.910Z,31.80
2018-09-18T14:02:49.192Z,31.60
2018-09-18T14:05:17.224Z,31.60
2018-09-18T14:07:45.625Z,31.70
2018-09-18T14:12:42.985Z,31.40
2018-09-18T14:17:39.531Z,31.60
2018-09-18T14:22:36.304Z,31.60
2018-09-18T14:25:04.777Z,31.10
2018-09-18T14:32:29.482Z,30.50
2018-09-18T14:37:25.439Z,30.80
2018-09-18T14:39:53.589Z,30.90
2018-09-18T14:42:21.822Z,30.60
2018-09-18T14:44:50.076Z,30.50
2018-09-18T14:47:18.110Z,30.30
2018-09-18T14:49:46.701Z,30.00
2018-09-18T14:52:18.298Z,30.00
2018-09-18T14:54:46.760Z,30.00
2018-09-18T14:57:15.021Z,29.80
2018-09-18T14:59:43.154Z,29.80
2018-09-18T15:02:12.390Z,29.50
2018-09-18T15:04:40.977Z,29.40
2018-09-18T15:07:09.147Z,29.30
2018-09-18T15:09:37.221Z,29.20
2018-09-18T15:14:33.660Z,29.00
2018-09-18T15:17:01.735Z,29.00
2018-09-18T15:19:29.891Z,29.00
2018-09-18T15:21:58.239Z,29.00
2018-09-18T15:24:26.627Z,28.90
2018-09-18T15:29:22.683Z,28.70
2018-09-18T15:31:51.069Z,28.80
2018-09-18T15:34:19.166Z,28.80
2018-09-18T15:39:15.365Z,28.70
2018-09-18T15:44:11.417Z,28.60
2018-09-18T15:46:41.449Z,28.70
2018-09-18T15:49:09.785Z,28.60
2018-09-18T15:51:37.904Z,28.40
2018-09-18T15:54:06.419Z,28.30
2018-09-18T15:56:34.581Z,28.20
2018-09-18T15:59:02.677Z,28.10
2018-09-18T16:01:30.765Z,28.20
2018-09-18T16:03:59.270Z,28.10
2018-09-18T16:06:27.535Z,28.00
2018-09-18T16:08:55.844Z,27.80
2018-09-18T16:11:23.844Z,27.80
2018-09-18T16:23:44.278Z,26.70
2018-09-18T16:26:12.385Z,26.60
2018-09-18T16:31:08.484Z,26.30
2018-09-18T16:33:36.637Z,26.10
2018-09-18T16:36:04.998Z,26.00
2018-09-18T16:38:33.968Z,25.90
2018-09-18T16:43:30.179Z,25.70
2018-09-18T16:45:58.535Z,25.70
2018-09-18T16:48:27.268Z,25.60
2018-09-18T16:50:55.595Z,25.60
2018-09-18T16:53:23.874Z,25.50
2018-09-18T17:00:48.182Z,25.30
2018-09-18T17:05:44.377Z,25.00
2018-09-18T17:08:12.668Z,24.60
2018-09-18T17:10:40.739Z,24.60
2018-09-18T17:13:08.906Z,24.30
2018-09-18T17:15:37.196Z,24.00
2018-09-18T17:20:33.388Z,23.80
2018-09-18T17:23:01.721Z,23.50
2018-09-18T17:35:26.175Z,23.40
2018-09-18T17:37:54.513Z,23.50
2018-09-18T17:40:22.965Z,23.50
2018-09-18T17:42:51.170Z,23.30
2018-09-18T17:45:19.195Z,23.30
2018-09-18T17:50:15.419Z,23.20
2018-09-18T17:52:43.535Z,23.20
2018-09-18T17:55:11.960Z,23.20
2018-09-18T18:00:08.030Z,23.10
2018-09-18T18:02:36.498Z,23.00
2018-09-18T18:05:04.774Z,22.90
2018-09-18T18:10:03.548Z,22.90
2018-09-18T18:13:36.031Z,22.80
2018-09-18T18:16:04.307Z,22.80
2018-09-18T18:18:33.583Z,22.70
2018-09-18T18:21:01.885Z,22.60
2018-09-18T18:23:30.221Z,22.40
2018-09-18T18:25:58.448Z,22.30
2018-09-18T18:30:54.598Z,22.10
2018-09-18T18:33:22.677Z,21.90
2018-09-18T18:35:50.735Z,21.90
2018-09-18T18:38:18.825Z,21.90
2018-09-18T18:40:47.170Z,22.00
2018-09-18T18:43:15.287Z,21.90
2018-09-18T18:45:43.620Z,21.80
2018-09-18T18:48:11.849Z,21.80
2018-09-18T18:50:40.075Z,21.80
2018-09-18T18:55:36.182Z,21.70
2018-09-18T18:58:04.241Z,21.60
2018-09-18T19:03:00.187Z,21.40
2018-09-18T19:07:56.199Z,21.40
2018-09-18T19:10:24.344Z,21.20
2018-09-18T19:17:48.501Z,21.20
2018-09-18T19:22:44.827Z,21.10
2018-09-18T19:27:41.992Z,21.00
2018-09-18T19:30:10.191Z,21.00
2018-09-18T19:32:38.448Z,20.90
2018-09-18T19:40:02.743Z,20.80
2018-09-18T19:44:58.841Z,20.70
2018-09-18T19:49:55.851Z,20.60
2018-09-18T19:52:25.072Z,20.50
2018-09-18T19:54:53.310Z,20.60
2018-09-18T19:57:21.364Z,20.60
2018-09-18T19:59:49.386Z,20.60
2018-09-18T20:02:17.908Z,20.60
2018-09-18T20:04:46.013Z,20.50
2018-09-18T20:07:14.270Z,20.40
2018-09-18T20:12:13.630Z,20.40
2018-09-18T20:14:41.866Z,20.40
2018-09-18T20:17:10.194Z,20.30
2018-09-18T20:19:38.242Z,20.30
2018-09-18T20:24:35.754Z,20.20
2018-09-18T20:27:04.010Z,20.20
2018-09-18T20:29:32.213Z,20.20
2018-09-18T20:34:28.298Z,20.00
2018-09-18T20:36:56.402Z,20.00
2018-09-18T20:39:24.669Z,20.00
2018-09-18T20:44:20.845Z,19.70
2018-09-18T20:46:49.224Z,19.70
2018-09-18T20:51:45.454Z,19.70
2018-09-18T20:54:13.737Z,19.70
2018-09-18T20:56:41.850Z,19.70
2018-09-18T20:59:09.868Z,19.60
2018-09-18T21:01:37.951Z,19.60
2018-09-18T21:04:06.167Z,19.40
2018-09-18T21:06:34.393Z,19.30
2018-09-18T21:09:02.519Z,19.20
2018-09-18T21:11:30.542Z,19.30
2018-09-18T21:13:58.673Z,19.30
2018-09-18T21:16:26.973Z,19.10
2018-09-18T21:18:55.097Z,19.10
2018-09-18T21:21:23.139Z,19.00
2018-09-18T21:23:51.208Z,19.00
2018-09-18T21:26:19.544Z,18.90
2018-09-18T21:28:48.145Z,18.80
2018-09-18T21:31:16.720Z,18.80
2018-09-18T21:33:45.896Z,18.90
2018-09-18T21:38:42.071Z,18.90
2018-09-18T21:41:10.242Z,18.90
2018-09-18T21:43:38.535Z,18.80
2018-09-18T21:46:06.694Z,18.70
2018-09-18T21:48:35.825Z,18.60
2018-09-18T21:51:03.997Z,18.50
2018-09-18T21:53:32.079Z,18.50
2018-09-18T21:56:00.230Z,18.30
2018-09-18T22:00:56.197Z,18.30
2018-09-18T22:08:20.899Z,18.20
2018-09-18T22:10:49.163Z,18.20
2018-09-18T22:13:17.242Z,18.20
2018-09-18T22:15:45.343Z,18.00
2018-09-18T22:18:13.368Z,18.00
2018-09-18T22:20:43.046Z,18.00
2018-09-18T22:23:11.406Z,18.00
2018-09-18T22:25:39.949Z,17.90
2018-09-18T22:30:36.194Z,17.80
2018-09-18T22:33:04.256Z,17.80
2018-09-18T22:35:32.314Z,17.80
2018-09-18T22:38:00.452Z,17.80
2018-09-18T22:40:28.759Z,17.70
2018-09-18T22:45:28.649Z,17.60
2018-09-18T22:47:57.775Z,17.50
2018-09-18T22:55:21.897Z,17.40
2018-09-18T23:05:14.451Z,17.40
2018-09-18T23:07:42.513Z,17.40
2018-09-18T23:10:10.586Z,17.40
2018-09-18T23:12:38.614Z,17.40
2018-09-18T23:15:06.786Z,17.40
2018-09-18T23:17:34.833Z,17.50
2018-09-18T23:20:03.258Z,17.40
2018-09-18T23:22:31.507Z,17.20
2018-09-18T23:24:59.628Z,17.20
2018-09-18T23:27:27.743Z,17.10
2018-09-18T23:29:56.020Z,17.20
2018-09-18T23:32:24.078Z,17.10
2018-09-18T23:34:52.790Z,17.20
2018-09-18T23:37:20.926Z,17.30
2018-09-18T23:39:49.220Z,17.20
2018-09-18T23:49:41.977Z,17.10
2018-09-18T23:52:10.315Z,16.90
2018-09-18T23:54:38.663Z,16.90
2018-09-18T23:57:07.050Z,16.80
2018-09-18T23:59:35.438Z,16.90
